Time;durP1;ratioP1;P1;durP2;ratioP2;P2;SDS_P1;SDS_P2;PMS_P1;PMS_P2;Temp;Humidity;BMP_temperature;BMP_pressure;BME280_temperature;BME280_humidity;BME280_pressure;Samples;Min_cycle;Max_cycle;Signal;HPM_P1;HPM_P2
2022/11/17 00:01:43;;;;;;;4.20;1.30;;;;;;;8.70;100.00;97011.44;4992932;28;20072;-79
2022/11/17 00:04:09;;;;;;;5.10;1.10;;;;;;;8.82;100.00;97018.69;4988029;28;20030;-77
2022/11/17 00:06:34;;;;;;;3.53;1.08;;;;;;;8.79;100.00;97006.50;4990031;28;20050;-77
2022/11/17 00:08:59;;;;;;;7.15;2.15;;;;;;;8.87;100.00;97003.44;5007622;28;20423;-77
2022/11/17 00:11:25;;;;;;;3.05;1.50;;;;;;;8.92;100.00;97000.84;4992324;28;20038;-77
2022/11/17 00:16:34;;;;;;;4.95;1.02;;;;;;;9.21;100.00;96987.41;4987309;28;20037;-76
2022/11/17 00:21:43;;;;;;;5.38;1.10;;;;;;;9.03;100.00;96949.81;4987782;28;20124;-76
2022/11/17 00:24:08;;;;;;;3.30;1.17;;;;;;;9.26;100.00;96982.13;4994061;28;20611;-76
2022/11/17 00:27:00;;;;;;;4.40;0.93;;;;;;;9.31;100.00;96984.13;4991185;28;20038;-76
2022/11/17 00:29:21;;;;;;;3.10;1.60;;;;;;;9.16;100.00;96976.53;4989254;28;20054;-76
2022/11/17 00:34:30;;;;;;;2.40;1.40;;;;;;;9.12;100.00;96968.09;4993172;28;20096;-75
2022/11/17 00:36:55;;;;;;;4.75;1.17;;;;;;;9.10;100.00;96964.81;4979661;28;20038;-76
2022/11/17 00:39:23;;;;;;;3.60;1.40;;;;;;;8.99;100.00;96946.78;4987044;28;20187;-77
2022/11/17 00:41:48;;;;;;;1.83;1.00;;;;;;;9.00;100.00;96957.31;4992942;28;20023;-75
2022/11/17 00:44:15;;;;;;;2.67;1.10;;;;;;;8.93;100.00;96945.88;4993986;28;20053;-75
2022/11/17 00:46:41;;;;;;;3.20;1.20;;;;;;;8.86;100.00;96953.28;4989356;28;20025;-75
2022/11/17 00:49:09;;;;;;;3.45;1.33;;;;;;;8.85;100.00;96951.63;4987425;28;20034;-77
2022/11/17 00:51:35;;;;;;;3.50;1.45;;;;;;;8.71;100.00;96944.84;4990516;28;20477;-76
2022/11/17 00:54:01;;;;;;;4.18;1.10;;;;;;;8.43;100.00;96914.06;4985735;28;20077;-76
2022/11/17 00:56:26;;;;;;;2.15;1.15;;;;;;;8.49;100.00;96928.50;4987754;28;20530;-77
2022/11/17 00:58:52;;;;;;;2.40;1.00;;;;;;;8.58;100.00;96937.03;5005472;28;20034;-76
2022/11/17 01:01:18;;;;;;;7.13;1.30;;;;;;;8.55;100.00;96939.13;4992293;28;20026;-77
2022/11/17 01:03:43;;;;;;;8.38;2.47;;;;;;;8.65;100.00;96941.22;4976997;28;20054;-75
2022/11/17 01:06:14;;;;;;;4.60;1.83;;;;;;;8.75;100.00;96957.63;4993216;28;20025;-74
2022/11/17 01:08:40;;;;;;;4.93;1.40;;;;;;;8.71;100.00;96947.56;4986775;28;20123;-78
2022/11/17 01:11:10;;;;;;;2.03;1.35;;;;;;;8.80;100.00;96953.38;4991191;28;20113;-76
2022/11/17 01:13:37;;;;;;;2.35;1.35;;;;;;;8.78;100.00;96934.78;4976114;28;20034;-76
2022/11/17 01:16:05;;;;;;;3.08;1.40;;;;;;;8.85;100.00;96940.00;4988193;28;20026;-77
2022/11/17 01:18:31;;;;;;;6.03;1.60;;;;;;;8.77;100.00;96933.94;4988577;28;20053;-74
2022/11/17 01:21:02;;;;;;;4.50;1.50;;;;;;;8.75;100.00;96935.22;4987014;28;20022;-77
2022/11/17 01:23:28;;;;;;;3.72;1.40;;;;;;;8.50;100.00;96906.69;4990371;28;20026;-76
2022/11/17 01:25:53;;;;;;;4.07;1.48;;;;;;;8.41;100.00;96894.63;5007710;28;20030;-75
2022/11/17 01:28:18;;;;;;;4.95;2.00;;;;;;;8.42;100.00;96898.16;4991479;28;20027;-75
2022/11/17 01:30:43;;;;;;;2.85;1.50;;;;;;;8.48;100.00;96908.78;4986690;28;20493;-75
2022/11/17 01:33:09;;;;;;;2.85;1.20;;;;;;;8.51;100.00;96908.34;4988696;28;20146;-75
2022/11/17 01:35:34;;;;;;;2.97;1.50;;;;;;;8.66;100.00;96907.00;4988630;28;20022;-75
2022/11/17 01:37:59;;;;;;;4.72;1.90;;;;;;;8.63;100.00;96888.63;4991338;28;20105;-76
2022/11/17 01:40:25;;;;;;;5.03;1.65;;;;;;;8.74;100.00;96885.06;4989993;28;20076;-78
2022/11/17 01:42:50;;;;;;;3.15;1.55;;;;;;;8.66;100.00;96878.16;4988084;28;20033;-77
2022/11/17 01:45:16;;;;;;;5.30;2.10;;;;;;;8.82;100.00;96891.97;4987583;28;20030;-77
2022/11/17 01:47:51;;;;;;;4.43;1.60;;;;;;;8.70;100.00;96865.84;4991404;28;20476;-75
2022/11/17 01:50:28;;;;;;;2.83;1.35;;;;;;;8.88;100.00;96885.59;4986652;28;20042;-77
2022/11/17 01:53:00;;;;;;;6.28;1.65;;;;;;;8.89;100.00;96877.28;4988632;28;20054;-77
2022/11/17 01:55:34;;;;;;;2.97;1.50;;;;;;;8.88;100.00;96867.56;4984966;28;20030;-77
2022/11/17 01:58:10;;;;;;;5.10;1.40;;;;;;;8.80;100.00;96845.53;4989725;28;20022;-77
2022/11/17 02:00:35;;;;;;;3.92;1.70;;;;;;;8.85;100.00;96857.22;4985102;28;20480;-78
2022/11/17 02:03:01;;;;;;;4.60;1.38;;;;;;;8.85;100.00;96843.75;5007894;28;20038;-75
2022/11/17 02:05:57;;;;;;;3.78;1.25;;;;;;;8.91;100.00;96853.59;4992111;28;20030;-76
2022/11/17 02:08:26;;;;;;;5.20;1.70;;;;;;;8.76;100.00;96821.75;4988514;28;20026;-74
2022/11/17 02:10:52;;;;;;;3.28;1.52;;;;;;;8.89;100.00;96834.13;5005393;28;20034;-77
2022/11/17 02:13:20;;;;;;;2.75;1.30;;;;;;;8.84;100.00;96828.66;4988755;28;20033;-76
2022/11/17 02:15:45;;;;;;;3.33;1.35;;;;;;;8.73;100.00;96808.75;4989026;28;20045;-77
2022/11/17 02:18:10;;;;;;;3.88;1.75;;;;;;;8.74;100.00;96807.69;4991028;28;20473;-76
2022/11/17 02:21:04;;;;;;;5.00;1.85;;;;;;;8.70;100.00;96805.75;4988650;28;20026;-76
2022/11/17 02:23:49;;;;;;;4.55;1.50;;;;;;;8.48;100.00;96787.50;4992759;28;20468;-79
2022/11/17 02:26:33;;;;;;;5.25;1.65;;;;;;;8.50;100.00;96785.41;4991064;28;20030;-79
2022/11/17 02:29:33;;;;;;;4.75;1.55;;;;;;;8.49;100.00;96793.75;4986857;28;20033;-79
2022/11/17 02:32:03;;;;;;;3.28;1.63;;;;;;;8.49;100.00;96758.72;4986971;28;20519;-79
2022/11/17 02:34:52;;;;;;;3.67;1.42;;;;;;;8.69;100.00;96764.47;4990662;28;20031;-78
2022/11/17 02:37:44;;;;;;;6.15;1.63;;;;;;;8.66;100.00;96753.34;4996191;28;20116;-77
2022/11/17 02:40:15;;;;;;;2.70;1.45;;;;;;;8.85;100.00;96762.84;4993124;28;20034;-75
2022/11/17 02:46:04;;;;;;;4.03;1.33;;;;;;;8.97;100.00;96738.53;4991771;28;20064;-77
2022/11/17 02:48:33;;;;;;;2.65;1.10;;;;;;;9.08;100.00;96736.81;4992870;28;20030;-75
2022/11/17 02:50:59;;;;;;;;;;;;;;;9.13;100.00;96739.59;4993698;28;20132;-75
2022/11/17 02:53:26;;;;;;;1.42;0.73;;;;;;;9.18;100.00;96739.69;4991187;28;21148;-76
2022/11/17 02:55:52;;;;;;;1.83;1.00;;;;;;;9.14;100.00;96706.16;4989857;28;20485;-76
2022/11/17 02:58:19;;;;;;;3.75;0.80;;;;;;;9.17;100.00;96681.41;4977609;28;20481;-76
2022/11/17 03:01:18;;;;;;;1.23;0.80;;;;;;;9.29;100.00;96713.69;4993178;28;20503;-76
2022/11/17 03:04:06;;;;;;;1.65;1.02;;;;;;;9.30;100.00;96708.06;4991484;28;20031;-75
2022/11/17 03:06:46;;;;;;;1.40;0.77;;;;;;;9.18;100.00;96661.44;4992532;28;20026;-76
2022/11/17 03:09:36;;;;;;;1.38;0.60;;;;;;;9.40;100.00;96683.09;4992683;28;20026;-75
2022/11/17 03:12:11;;;;;;;0.77;0.52;;;;;;;9.48;100.00;96701.53;4989781;28;20082;-76
2022/11/17 03:14:57;;;;;;;1.88;0.77;;;;;;;9.41;100.00;96700.94;4992308;28;20042;-76
2022/11/17 03:17:59;;;;;;;3.63;0.93;;;;;;;9.22;100.00;96667.97;4976071;28;20053;-76
2022/11/17 03:20:30;;;;;;;1.63;0.70;;;;;;;9.46;100.00;96705.56;4987223;28;20066;-76
2022/11/17 03:23:01;;;;;;;5.68;1.10;;;;;;;9.39;100.00;96720.06;4993920;28;20026;-76
2022/11/17 03:25:29;;;;;;;4.53;1.42;;;;;;;9.14;100.00;96704.31;4993877;28;20496;-77
2022/11/17 03:27:59;;;;;;;4.45;1.15;;;;;;;9.26;100.00;96744.69;4994915;28;20034;-76
2022/11/17 03:30:27;;;;;;;1.83;1.10;;;;;;;9.02;100.00;96740.50;4990062;28;20118;-75
2022/11/17 03:32:57;;;;;;;3.05;1.20;;;;;;;8.96;100.00;96753.91;4993910;28;20027;-75
2022/11/17 03:35:32;;;;;;;3.15;1.20;;;;;;;8.92;100.00;96763.53;4985333;28;20531;-76
2022/11/17 03:38:06;;;;;;;2.10;1.20;;;;;;;8.70;100.00;96752.63;4994564;28;20427;-75
2022/11/17 03:40:33;;;;;;;3.80;1.48;;;;;;;8.66;100.00;96751.47;5006581;28;20381;-76
2022/11/17 03:43:03;;;;;;;4.00;1.60;;;;;;;8.61;100.00;96742.47;4979311;28;20030;-75
2022/11/17 03:45:41;;;;;;;3.88;1.20;;;;;;;8.40;100.00;96701.66;4978157;28;20415;-75
2022/11/17 03:48:21;;;;;;;3.20;1.15;;;;;;;8.43;100.00;96711.94;4990404;28;20022;-76
2022/11/17 03:50:54;;;;;;;1.73;1.10;;;;;;;8.38;100.00;96716.41;5003878;28;20030;-75
2022/11/17 03:53:20;;;;;;;3.20;1.40;;;;;;;8.34;100.00;96722.28;4993809;28;20030;-75
2022/11/17 03:55:54;;;;;;;3.53;1.48;;;;;;;8.50;100.00;96736.88;4994020;28;20418;-77
2022/11/17 03:58:23;;;;;;;3.50;1.40;;;;;;;8.52;100.00;96732.09;4990424;28;20022;-75
2022/11/17 04:00:52;;;;;;;2.03;1.40;;;;;;;8.56;100.00;96744.00;4993901;28;20030;-75
2022/11/17 04:03:21;;;;;;;2.05;1.23;;;;;;;8.46;100.00;96718.75;5000297;28;20041;-75
2022/11/17 04:05:46;;;;;;;3.60;1.55;;;;;;;8.66;100.00;96745.25;5008423;28;20034;-76
2022/11/17 04:08:11;;;;;;;2.90;1.45;;;;;;;8.69;100.00;96728.59;4992331;28;20047;-76
2022/11/17 04:15:55;;;;;;;3.60;1.33;;;;;;;8.72;100.00;96715.47;4994009;28;20420;-76
2022/11/17 04:16:06;;;;;;;2.75;1.20;;;;;;;8.87;100.00;96725.69;4990499;28;20060;-75
2022/11/17 04:18:31;;;;;;;4.32;1.20;;;;;;;8.88;100.00;96740.81;4993626;28;20517;-82
2022/11/17 04:20:56;;;;;;;1.95;1.00;;;;;;;8.79;100.00;96723.38;4992466;28;20389;-75
2022/11/17 04:23:23;;;;;;;5.40;1.92;;;;;;;8.84;100.00;96749.63;4992316;28;20392;-75
2022/11/17 04:28:40;;;;;;;5.35;1.17;;;;;;;8.41;100.00;96734.81;4993889;28;20065;-77
2022/11/17 04:31:18;;;;;;;;;;;;;;;8.43;100.00;96746.16;4991735;28;20105;-75
2022/11/17 04:33:51;;;;;;;2.28;1.20;;;;;;;8.47;100.00;96740.06;4993914;28;19910;-76
2022/11/17 04:36:22;;;;;;;3.08;1.58;;;;;;;8.46;100.00;96743.84;5006452;28;20073;-75
2022/11/17 04:38:50;;;;;;;4.07;1.48;;;;;;;8.41;100.00;96748.28;4990802;28;20038;-75
2022/11/17 04:44:01;;;;;;;3.42;1.70;;;;;;;8.31;100.00;96751.59;4994280;28;20045;-75
2022/11/17 04:46:29;;;;;;;3.90;1.70;;;;;;;8.27;100.00;96766.56;4990165;28;20033;-84
2022/11/17 04:48:55;;;;;;;4.47;2.22;;;;;;;8.03;100.00;96745.09;4995735;28;20680;-85
2022/11/17 04:51:21;;;;;;;3.70;1.75;;;;;;;8.09;100.00;96748.69;5006671;28;20027;-84
2022/11/17 04:53:47;;;;;;;4.38;1.80;;;;;;;8.05;100.00;96752.94;5007275;28;20026;-84
2022/11/17 04:56:12;;;;;;;3.42;2.00;;;;;;;8.17;100.00;96771.75;5003875;28;20107;-82
2022/11/17 04:58:38;;;;;;;4.38;1.73;;;;;;;8.14;100.00;96781.13;4999680;28;20380;-83
2022/11/17 05:01:13;;;;;;;5.82;1.80;;;;;;;8.02;100.00;96756.13;5012258;28;20035;-83
2022/11/17 05:03:42;;;;;;;4.75;2.22;;;;;;;8.13;100.00;96780.31;4994673;28;20018;-86
2022/11/17 05:06:12;;;;;;;4.82;2.17;;;;;;;8.10;100.00;96766.50;4994966;28;20129;-88
2022/11/17 05:08:38;;;;;;;6.85;2.30;;;;;;;8.06;100.00;96762.66;4991956;28;20037;-86
2022/11/17 05:13:50;;;;;;;4.65;2.38;;;;;;;8.11;100.00;96806.66;4989612;28;20037;-88
2022/11/17 05:19:01;;;;;;;5.13;2.42;;;;;;;8.13;100.00;96788.41;4989837;28;20053;-81
2022/11/17 05:21:26;;;;;;;7.22;2.67;;;;;;;7.78;100.00;96748.06;5010420;28;20489;-89
2022/11/17 05:23:54;;;;;;;4.25;2.55;;;;;;;7.79;100.00;96743.50;4996534;28;20085;-84
2022/11/17 05:26:23;;;;;;;4.07;2.50;;;;;;;8.12;100.00;96805.63;4996268;28;20102;-82
2022/11/17 05:28:48;;;;;;;5.70;2.70;;;;;;;7.80;100.00;96761.28;4997725;28;20025;-78
2022/11/17 05:31:14;;;;;;;4.50;2.40;;;;;;;8.04;100.00;96784.44;5016461;28;20030;-85
2022/11/17 05:33:40;;;;;;;10.70;2.72;;;;;;;8.06;100.00;96770.72;5000113;28;20088;-82
2022/11/17 05:36:06;;;;;;;6.05;2.30;;;;;;;7.90;100.00;96772.28;4996392;28;20023;-84
2022/11/17 05:38:31;;;;;;;6.85;2.80;;;;;;;8.00;100.00;96785.97;4997860;28;20014;-88
2022/11/17 05:40:57;;;;;;;6.30;2.47;;;;;;;7.70;100.00;96751.09;4996255;28;20022;-81
2022/11/17 05:43:23;;;;;;;8.98;2.58;;;;;;;7.87;100.00;96775.44;4995402;28;20058;-86
2022/11/17 05:45:48;;;;;;;7.55;3.10;;;;;;;7.95;100.00;96790.41;5013552;28;20029;-80
2022/11/17 05:48:14;;;;;;;4.30;2.67;;;;;;;7.83;100.00;96782.34;4998017;28;20022;-82
2022/11/17 05:50:39;;;;;;;8.82;2.90;;;;;;;7.82;100.00;96773.44;4993376;28;20023;-83
2022/11/17 05:53:04;;;;;;;4.40;2.28;;;;;;;7.72;100.00;96764.34;5013179;28;20066;-84
2022/11/17 05:55:30;;;;;;;7.40;3.22;;;;;;;7.83;100.00;96763.50;4992034;28;20609;-84
2022/11/17 05:58:00;;;;;;;9.73;3.10;;;;;;;7.81;100.00;96777.22;4995399;28;20030;-87
2022/11/17 06:00:25;;;;;;;8.07;3.85;;;;;;;7.87;100.00;96778.94;4984569;28;20560;-83
2022/11/17 06:03:05;;;;;;;5.82;3.42;;;;;;;7.96;100.00;96782.09;4993414;28;20053;-76
2022/11/17 06:05:31;;;;;;;8.38;2.90;;;;;;;8.03;100.00;96787.38;5007956;28;20535;-84
2022/11/17 06:07:57;;;;;;;3.95;2.40;;;;;;;8.10;100.00;96772.72;4991343;28;20037;-77
2022/11/17 06:10:23;;;;;;;3.83;1.75;;;;;;;8.24;100.00;96767.06;4987968;28;20023;-76
2022/11/17 06:12:48;;;;;;;8.10;2.30;;;;;;;8.17;100.00;96744.81;4990188;28;20113;-78
2022/11/17 06:15:14;;;;;;;5.25;1.80;;;;;;;8.29;100.00;96746.44;4990966;28;20023;-76
2022/11/17 06:17:53;;;;;;;4.28;1.90;;;;;;;8.28;100.00;96733.22;4992592;28;20080;-81
2022/11/17 06:20:31;;;;;;;4.60;2.10;;;;;;;8.51;100.00;96765.50;4999001;28;20018;-80
2022/11/17 06:23:01;;;;;;;4.25;1.98;;;;;;;8.43;100.00;96765.03;4992803;28;20392;-76
2022/11/17 06:25:27;;;;;;;5.45;2.30;;;;;;;8.25;100.00;96753.38;5011223;28;20037;-79
2022/11/17 06:27:53;;;;;;;5.53;2.17;;;;;;;8.40;100.00;96785.19;4996185;28;20080;-81
2022/11/17 06:30:18;;;;;;;4.63;2.72;;;;;;;8.30;100.00;96760.72;4993070;28;20451;-80
2022/11/17 06:32:45;;;;;;;4.07;1.98;;;;;;;8.42;100.00;96784.97;4994183;28;20030;-77
2022/11/17 06:35:13;;;;;;;5.93;1.77;;;;;;;8.54;100.00;96764.16;4993150;28;20031;-75
2022/11/17 06:37:38;;;;;;;3.75;2.05;;;;;;;8.50;100.00;96750.38;4987929;28;20026;-76
2022/11/17 06:40:04;;;;;;;6.25;2.10;;;;;;;8.67;100.00;96768.44;4990973;28;20449;-75
2022/11/17 06:45:13;;;;;;;3.60;2.20;;;;;;;8.68;100.00;96779.00;4993996;28;20491;-75
2022/11/17 06:47:39;;;;;;;3.35;1.60;;;;;;;8.80;100.00;96776.25;5005328;28;20030;-75
2022/11/17 06:50:05;;;;;;;4.75;2.17;;;;;;;8.80;100.00;96781.63;4995994;28;20053;-75
2022/11/17 06:52:30;;;;;;;5.93;2.17;;;;;;;8.79;100.00;96793.50;4992356;28;20030;-75
2022/11/17 06:54:56;;;;;;;2.75;1.58;;;;;;;8.84;100.00;96798.97;4993183;28;20037;-75
2022/11/17 06:57:21;;;;;;;5.22;1.50;;;;;;;8.94;100.00;96788.38;4995476;28;20072;-76
2022/11/17 06:59:46;;;;;;;4.30;1.60;;;;;;;9.11;100.00;96804.59;4995149;28;20410;-76
2022/11/17 07:02:12;;;;;;;1.98;1.30;;;;;;;9.03;100.00;96778.00;4994368;28;20027;-75
2022/11/17 07:04:37;;;;;;;4.45;2.03;;;;;;;9.02;100.00;96783.66;4989086;28;20030;-75
2022/11/17 07:07:02;;;;;;;5.68;2.88;;;;;;;9.04;100.00;96771.56;4991334;28;20113;-74
2022/11/17 07:09:28;;;;;;;2.78;1.77;;;;;;;8.98;100.00;96749.06;4992125;28;20515;-74
2022/11/17 07:11:53;;;;;;;3.67;1.40;;;;;;;9.05;100.00;96738.13;4993857;28;20023;-74
2022/11/17 07:14:18;;;;;;;2.55;1.63;;;;;;;9.09;100.00;96716.88;4994084;28;20030;-74
2022/11/17 07:16:44;;;;;;;5.05;1.77;;;;;;;9.20;100.00;96743.78;4991250;28;20038;-74
2022/11/17 07:19:09;;;;;;;5.28;2.10;;;;;;;9.26;100.00;96758.16;5009682;28;20025;-75
2022/11/17 07:21:35;;;;;;;4.00;1.52;;;;;;;9.41;100.00;96763.00;4990995;28;20018;-74
2022/11/17 07:24:02;;;;;;;3.92;1.27;;;;;;;9.50;100.00;96758.00;4984058;28;20169;-77
2022/11/17 07:26:27;;;;;;;3.67;1.40;;;;;;;9.35;100.00;96734.28;4996868;28;20018;-79
2022/11/17 07:28:52;;;;;;;4.63;1.40;;;;;;;9.48;100.00;96741.22;4996090;28;20035;-80
2022/11/17 07:31:18;;;;;;;3.80;1.27;;;;;;;9.57;100.00;96756.75;4997345;28;20057;-83
2022/11/17 07:33:44;;;;;;;3.38;1.65;;;;;;;9.58;100.00;96733.28;4989812;28;20451;-82
2022/11/17 07:36:13;;;;;;;2.15;1.08;;;;;;;9.86;100.00;96737.72;4995328;28;20023;-84
2022/11/17 07:38:39;;;;;;;5.28;1.58;;;;;;;10.36;100.00;96749.47;4995755;28;20052;-82
2022/11/17 07:41:04;;;;;;;2.15;1.02;;;;;;;10.22;100.00;96735.50;4993790;28;20022;-79
2022/11/17 07:43:30;;;;;;;1.75;1.02;;;;;;;10.10;100.00;96728.31;4998764;28;20053;-83
2022/11/17 07:45:55;;;;;;;2.83;1.55;;;;;;;10.08;100.00;96745.84;4997912;28;20035;-83
2022/11/17 07:48:21;;;;;;;3.55;1.70;;;;;;;10.08;100.00;96746.66;4996655;28;20030;-85
2022/11/17 07:50:47;;;;;;;3.45;1.85;;;;;;;10.19;100.00;96736.81;5000003;28;20443;-82
2022/11/17 07:53:12;;;;;;;5.30;1.20;;;;;;;10.24;100.00;96734.19;4991739;28;20038;-82
2022/11/17 07:55:37;;;;;;;2.35;1.25;;;;;;;10.18;100.00;96710.84;4993998;28;20022;-85
2022/11/17 07:58:03;;;;;;;2.58;1.20;;;;;;;10.24;100.00;96693.63;4997257;28;20033;-84
2022/11/17 08:00:30;;;;;;;2.42;1.02;;;;;;;10.67;100.00;96734.41;4995583;28;20084;-82
2022/11/17 08:02:59;;;;;;;3.92;1.45;;;;;;;10.60;100.00;96707.56;4997691;28;20022;-83
2022/11/17 08:05:29;;;;;;;2.13;0.93;;;;;;;10.57;100.00;96696.44;5003455;28;20033;-87
2022/11/17 08:07:55;;;;;;;3.45;1.20;;;;;;;10.52;100.00;96697.19;4996936;28;20049;-79
2022/11/17 08:10:21;;;;;;;7.45;1.02;;;;;;;10.65;100.00;96710.31;4993233;28;20048;-86
2022/11/17 08:12:50;;;;;;;2.70;0.85;;;;;;;10.70;100.00;96712.25;4993677;28;20034;-84
2022/11/17 08:15:15;;;;;;;4.75;0.77;;;;;;;10.84;100.00;96713.47;4991006;28;20026;-85
2022/11/17 08:17:41;;;;;;;3.45;0.88;;;;;;;10.93;100.00;96709.22;4985211;28;20061;-85
2022/11/17 08:20:07;;;;;;;2.50;0.60;;;;;;;11.13;100.00;96727.53;4993868;28;20030;-83
2022/11/17 08:22:32;;;;;;;2.17;0.75;;;;;;;11.11;100.00;96713.44;5015904;28;20037;-87
2022/11/17 08:24:58;;;;;;;3.05;1.08;;;;;;;11.21;100.00;96722.72;4992828;28;20083;-87
2022/11/17 08:27:23;;;;;;;1.45;0.68;;;;;;;11.22;100.00;96710.81;4987133;28;20030;-79
2022/11/17 08:29:48;;;;;;;2.78;1.00;;;;;;;11.37;100.00;96721.75;5000033;28;20472;-82
2022/11/17 08:32:14;;;;;;;2.25;0.80;;;;;;;11.39;100.00;96716.88;4994689;28;20074;-84
2022/11/17 08:34:39;;;;;;;3.30;1.20;;;;;;;11.26;100.00;96709.22;5003845;28;20026;-84
2022/11/17 08:37:04;;;;;;;1.65;0.70;;;;;;;11.31;100.00;96712.78;4998464;28;20085;-86
2022/11/17 08:39:30;;;;;;;1.98;0.70;;;;;;;11.12;100.00;96688.00;5003241;28;20050;-85
2022/11/17 08:41:55;;;;;;;2.83;0.93;;;;;;;11.07;100.00;96708.78;4997873;28;20057;-84
2022/11/17 08:44:20;;;;;;;4.35;0.93;;;;;;;11.18;100.00;96708.59;5006540;28;20117;-73
2022/11/17 08:46:45;;;;;;;2.08;0.70;;;;;;;11.18;100.00;96719.44;4994213;28;20165;-82
2022/11/17 08:49:11;;;;;;;1.95;0.60;;;;;;;11.17;100.00;96722.41;4996534;28;20026;-80
2022/11/17 08:51:37;;;;;;;1.50;0.60;;;;;;;11.17;100.00;96709.69;4994336;28;20022;-81
2022/11/17 08:54:02;;;;;;;5.45;1.00;;;;;;;11.24;100.00;96727.59;4993470;28;20057;-75
2022/11/17 08:56:28;;;;;;;2.63;0.90;;;;;;;11.09;100.00;96706.66;4985104;28;20050;-77
2022/11/17 08:59:12;;;;;;;3.50;1.08;;;;;;;11.15;100.00;96722.66;4988153;28;20030;-89
2022/11/17 09:01:38;;;;;;;1.27;0.50;;;;;;;11.27;100.00;96727.91;4992025;28;20030;-87
2022/11/17 09:04:04;;;;;;;4.05;0.77;;;;;;;11.57;100.00;96726.50;5005807;28;20061;-85
2022/11/17 09:06:30;;;;;;;5.60;1.13;;;;;;;13.42;100.00;96722.53;4989364;28;20101;-85
2022/11/17 09:08:55;;;;;;;5.68;0.75;;;;;;;15.64;100.00;96708.34;5005822;28;20029;-89
2022/11/17 09:11:20;;;;;;;2.85;1.15;;;;;;;14.82;100.00;96738.94;5009267;28;20034;-70
2022/11/17 09:13:46;;;;;;;1.48;0.50;;;;;;;13.56;100.00;96729.81;4993286;28;20108;-80
2022/11/17 09:16:12;;;;;;;2.67;0.60;;;;;;;12.72;100.00;96740.06;4985106;28;20433;-80
2022/11/17 09:18:39;;;;;;;2.58;1.00;;;;;;;12.36;100.00;96749.16;5020678;28;20050;-81
2022/11/17 09:21:09;;;;;;;1.15;0.55;;;;;;;12.13;100.00;96747.69;4998411;28;20062;-85
2022/11/17 09:23:35;;;;;;;1.58;0.45;;;;;;;11.62;100.00;96708.38;4996579;28;20177;-88
2022/11/17 09:26:10;;;;;;;3.58;0.88;;;;;;;11.92;100.00;96755.75;4993761;28;20030;-87
2022/11/17 09:28:35;;;;;;;2.75;0.73;;;;;;;12.02;100.00;96758.50;4994267;28;20038;-85
2022/11/17 09:31:14;;;;;;;2.67;0.65;;;;;;;12.20;100.00;96767.25;4995835;28;20105;-85
2022/11/17 09:33:42;;;;;;;2.45;0.63;;;;;;;12.01;100.00;96758.78;4989937;28;20033;-83
2022/11/17 09:36:09;;;;;;;3.58;0.52;;;;;;;11.81;100.00;96765.66;5000842;28;20042;-85
2022/11/17 09:38:35;;;;;;;3.28;1.20;;;;;;;11.67;100.00;96758.25;5008032;28;20022;-81
2022/11/17 09:41:10;;;;;;;1.00;0.60;;;;;;;11.62;100.00;96759.84;4995130;28;20027;-81
2022/11/17 09:43:38;;;;;;;2.83;0.50;;;;;;;11.68;100.00;96779.66;4982152;28;20118;-77
2022/11/17 09:46:16;;;;;;;5.22;1.38;;;;;;;11.54;100.00;96762.22;4989812;28;20424;-77
2022/11/17 09:48:47;;;;;;;3.47;0.70;;;;;;;11.64;100.00;96773.13;4992213;28;20026;-79
2022/11/17 09:51:19;;;;;;;5.00;0.60;;;;;;;11.72;100.00;96775.34;4989528;28;20026;-81
2022/11/17 09:53:54;;;;;;;2.70;0.55;;;;;;;11.86;100.00;96789.28;4995439;28;20081;-82
2022/11/17 09:56:20;;;;;;;1.98;0.40;;;;;;;12.11;100.00;96790.53;5000744;28;20033;-79
2022/11/17 09:59:00;;;;;;;4.32;0.70;;;;;;;12.21;100.00;96796.03;5015851;28;20026;-78
2022/11/17 10:01:27;;;;;;;2.05;0.60;;;;;;;11.99;100.00;96767.16;5010368;28;20030;-79
2022/11/17 10:03:55;;;;;;;2.40;0.70;;;;;;;12.10;100.00;96789.69;4992436;28;20113;-73
2022/11/17 10:06:26;;;;;;;2.05;0.52;;;;;;;12.01;100.00;96786.69;4986311;28;20485;-73
2022/11/17 10:09:03;;;;;;;1.88;0.60;;;;;;;12.03;100.00;96783.72;4979584;28;20026;-75
2022/11/17 10:11:35;;;;;;;1.73;0.50;;;;;;;12.04;100.00;96790.75;4985428;28;20570;-74
2022/11/17 10:14:20;;;;;;;1.20;0.52;;;;;;;12.03;100.00;96797.28;4987853;28;20110;-73
2022/11/17 10:16:57;;;;;;;1.35;0.40;;;;;;;12.02;100.00;96793.72;4982469;28;20476;-73
2022/11/17 10:19:25;;;;;;;2.00;0.50;;;;;;;11.98;100.00;96776.38;4989427;28;20018;-73
2022/11/17 10:21:56;;;;;;;4.60;0.70;;;;;;;12.05;100.00;96798.66;4987770;28;20492;-73
2022/11/17 10:24:33;;;;;;;2.78;0.63;;;;;;;12.30;100.00;96793.63;4989549;28;20030;-73
2022/11/17 10:27:01;;;;;;;5.32;0.85;;;;;;;12.61;100.00;96787.25;4979539;28;20027;-74
2022/11/17 10:29:26;;;;;;;6.45;1.50;;;;;;;12.79;100.00;96779.72;4988418;28;20109;-73
2022/11/17 10:31:51;;;;;;;2.78;1.00;;;;;;;12.75;100.00;96776.69;4978362;28;20114;-74
2022/11/17 10:34:31;;;;;;;4.65;1.23;;;;;;;12.82;100.00;96777.28;4972755;28;20054;-75
2022/11/17 10:36:58;;;;;;;;;;;;;;;12.78;100.00;96778.88;4982015;28;20062;-75
2022/11/17 10:39:33;;;;;;;3.00;0.68;;;;;;;12.81;100.00;96778.38;4989002;28;19914;-75
2022/11/17 10:42:01;;;;;;;1.50;0.43;;;;;;;12.71;100.00;96762.06;4982585;28;20035;-74
2022/11/17 10:44:30;;;;;;;4.03;0.77;;;;;;;12.96;100.00;96749.59;4990790;28;20072;-74
2022/11/17 10:46:57;;;;;;;3.50;0.70;;;;;;;16.27;100.00;96746.47;4990534;28;20110;-74
2022/11/17 10:49:26;;;;;;;1.08;0.38;;;;;;;18.80;82.07;96760.16;4990122;28;20559;-74
2022/11/17 10:52:05;;;;;;;3.03;0.40;;;;;;;19.25;72.33;96768.50;4987569;28;20037;-74
2022/11/17 10:54:30;;;;;;;4.13;0.52;;;;;;;19.82;65.68;96753.47;4988008;28;20035;-73
2022/11/17 10:56:59;;;;;;;4.75;0.90;;;;;;;20.43;63.86;96760.06;4989223;28;20395;-74
2022/11/17 10:59:30;;;;;;;3.50;0.67;;;;;;;18.94;65.57;96764.81;4988936;28;20084;-73
2022/11/17 11:01:56;;;;;;;2.88;0.80;;;;;;;16.11;75.35;96767.66;4993971;28;20076;-73
2022/11/17 11:04:26;;;;;;;2.28;0.50;;;;;;;15.03;96.39;96773.13;4994821;28;20459;-73
2022/11/17 11:07:21;;;;;;;2.45;0.50;;;;;;;14.82;100.00;96766.97;5003073;28;20049;-74
2022/11/17 11:10:15;;;;;;;5.47;0.50;;;;;;;15.81;99.42;96776.13;4993337;28;20027;-74
2022/11/17 11:13:13;;;;;;;3.80;0.60;;;;;;;18.15;76.95;96758.41;4987171;28;20042;-74
2022/11/17 11:15:39;;;;;;;1.63;0.50;;;;;;;19.33;68.57;96757.91;4985635;28;20029;-72
2022/11/17 11:18:18;;;;;;;2.90;0.60;;;;;;;19.68;65.81;96770.00;4989359;28;20026;-73
2022/11/17 11:21:06;;;;;;;3.35;0.73;;;;;;;19.40;65.63;96761.84;4994783;28;20030;-72
2022/11/17 11:24:04;;;;;;;1.80;0.57;;;;;;;20.32;62.29;96756.78;4993285;28;20077;-77
2022/11/17 11:27:08;;;;;;;2.85;0.50;;;;;;;18.52;66.16;96764.03;5006863;28;20422;-75
2022/11/17 11:29:55;;;;;;;6.63;0.50;;;;;;;18.94;67.29;96765.66;4992088;28;20142;-76
2022/11/17 11:32:42;;;;;;;5.10;0.98;;;;;;;21.42;59.30;96745.91;4993177;28;20369;-75
2022/11/17 11:35:26;;;;;;;3.65;0.73;;;;;;;22.55;53.55;96742.88;4994317;28;20066;-76
2022/11/17 11:38:12;;;;;;;4.18;0.50;;;;;;;24.28;48.83;96737.13;4994319;28;20580;-76
2022/11/17 11:40:41;;;;;;;1.80;0.55;;;;;;;24.56;48.69;96767.72;4990714;28;20507;-77
2022/11/17 11:43:21;;;;;;;3.10;0.47;;;;;;;22.12;50.56;96762.31;4990797;28;20044;-76
2022/11/17 11:45:55;;;;;;;4.00;0.63;;;;;;;22.32;50.14;96756.09;4991670;28;20132;-79
2022/11/17 11:48:33;;;;;;;4.93;0.60;;;;;;;22.22;50.31;96767.50;4983878;28;20514;-81
2022/11/17 11:51:08;;;;;;;3.92;0.60;;;;;;;21.34;51.98;96771.44;5000648;28;20034;-82
2022/11/17 11:53:48;;;;;;;4.72;0.70;;;;;;;19.37;56.66;96770.69;4996544;28;20033;-81
2022/11/17 11:56:32;;;;;;;5.22;0.68;;;;;;;18.56;60.29;96782.28;5014096;28;20022;-73
2022/11/17 11:59:35;;;;;;;3.90;0.65;;;;;;;16.48;67.11;96800.78;5004176;28;20437;-84
2022/11/17 12:02:50;;;;;;;5.30;0.70;;;;;;;15.71;75.33;96793.38;5001704;28;20041;-84
2022/11/17 12:05:36;;;;;;;5.50;0.50;;;;;;;15.56;78.25;96797.84;5015553;28;20075;-82
2022/11/17 12:08:28;;;;;;;2.22;0.47;;;;;;;15.92;78.18;96783.09;4988725;28;20030;-83
2022/11/17 12:13:56;;;;;;;2.65;0.40;;;;;;;18.91;63.96;96779.94;4984099;28;20085;-83
2022/11/17 12:16:28;;;;;;;1.55;0.40;;;;;;;21.04;57.46;96757.50;4983229;28;20042;-82
2022/11/17 12:18:54;;;;;;;2.55;0.70;;;;;;;21.72;52.86;96744.13;4989500;28;20038;-77